sensor_id;sensor_type;location;lat;lon;timestamp;temperature;humidity
38237;DHT22;50101;49.438;11.098;2023-09-12T00:00:45;23.90;79.40
38237;DHT22;50101;49.438;11.098;2023-09-12T00:03:12;24.00;79.50
38237;DHT22;50101;49.438;11.098;2023-09-12T00:05:39;23.90;79.50
38237;DHT22;50101;49.438;11.098;2023-09-12T00:08:07;23.90;79.40
38237;DHT22;50101;49.438;11.098;2023-09-12T00:10:34;24.00;79.50
38237;DHT22;50101;49.438;11.098;2023-09-12T00:13:01;23.90;79.30
38237;DHT22;50101;49.438;11.098;2023-09-12T00:15:29;23.90;79.30
38237;DHT22;50101;49.438;11.098;2023-09-12T00:17:55;23.90;79.20
38237;DHT22;50101;49.438;11.098;2023-09-12T00:20:23;24.00;79.30
38237;DHT22;50101;49.438;11.098;2023-09-12T00:22:49;23.90;79.20
38237;DHT22;50101;49.438;11.098;2023-09-12T00:25:16;23.90;79.20
38237;DHT22;50101;49.438;11.098;2023-09-12T00:27:43;23.90;79.20
38237;DHT22;50101;49.438;11.098;2023-09-12T00:30:10;23.90;79.20
38237;DHT22;50101;49.438;11.098;2023-09-12T00:32:37;23.90;79.20
38237;DHT22;50101;49.438;11.098;2023-09-12T00:35:04;23.90;79.20
38237;DHT22;50101;49.438;11.098;2023-09-12T00:37:31;23.90;79.30
38237;DHT22;50101;49.438;11.098;2023-09-12T00:39:58;23.90;79.20
38237;DHT22;50101;49.438;11.098;2023-09-12T00:42:27;23.90;79.20
38237;DHT22;50101;49.438;11.098;2023-09-12T00:44:54;23.90;79.20
38237;DHT22;50101;49.438;11.098;2023-09-12T00:47:21;23.90;79.20
38237;DHT22;50101;49.438;11.098;2023-09-12T00:49:50;23.90;79.10
38237;DHT22;50101;49.438;11.098;2023-09-12T00:52:26;23.90;79.10
38237;DHT22;50101;49.438;11.098;2023-09-12T00:54:55;23.90;79.10
38237;DHT22;50101;49.438;11.098;2023-09-12T00:57:22;23.90;79.10
38237;DHT22;50101;49.438;11.098;2023-09-12T00:59:50;23.90;79.10
38237;DHT22;50101;49.438;11.098;2023-09-12T01:02:20;23.90;79.10
38237;DHT22;50101;49.438;11.098;2023-09-12T01:04:47;23.90;79.00
38237;DHT22;50101;49.438;11.098;2023-09-12T01:07:14;23.90;79.00
38237;DHT22;50101;49.438;11.098;2023-09-12T01:09:41;23.90;79.00
38237;DHT22;50101;49.438;11.098;2023-09-12T01:12:08;23.90;79.00
38237;DHT22;50101;49.438;11.098;2023-09-12T01:14:35;23.90;79.00
38237;DHT22;50101;49.438;11.098;2023-09-12T01:17:02;23.90;79.00
38237;DHT22;50101;49.438;11.098;2023-09-12T01:19:29;23.90;78.90
38237;DHT22;50101;49.438;11.098;2023-09-12T01:24:43;23.90;79.00
38237;DHT22;50101;49.438;11.098;2023-09-12T01:27:19;23.90;78.90
38237;DHT22;50101;49.438;11.098;2023-09-12T01:29:46;23.90;78.70
38237;DHT22;50101;49.438;11.098;2023-09-12T01:32:16;23.90;78.90
38237;DHT22;50101;49.438;11.098;2023-09-12T01:34:44;23.90;78.80
38237;DHT22;50101;49.438;11.098;2023-09-12T01:37:11;23.80;78.60
38237;DHT22;50101;49.438;11.098;2023-09-12T01:39:37;23.90;78.80
38237;DHT22;50101;49.438;11.098;2023-09-12T01:42:05;23.90;78.80
38237;DHT22;50101;49.438;11.098;2023-09-12T01:44:33;23.90;78.70
38237;DHT22;50101;49.438;11.098;2023-09-12T01:47:04;23.80;78.60
38237;DHT22;50101;49.438;11.098;2023-09-12T01:49:33;23.90;78.60
38237;DHT22;50101;49.438;11.098;2023-09-12T01:52:00;23.80;78.30
38237;DHT22;50101;49.438;11.098;2023-09-12T01:54:27;23.90;78.60
38237;DHT22;50101;49.438;11.098;2023-09-12T01:56:55;23.90;78.60
38237;DHT22;50101;49.438;11.098;2023-09-12T01:59:24;23.80;78.50
38237;DHT22;50101;49.438;11.098;2023-09-12T02:01:51;23.80;78.50
38237;DHT22;50101;49.438;11.098;2023-09-12T02:04:18;23.90;78.60
38237;DHT22;50101;49.438;11.098;2023-09-12T02:06:45;23.90;78.50
38237;DHT22;50101;49.438;11.098;2023-09-12T02:09:13;23.90;78.10
38237;DHT22;50101;49.438;11.098;2023-09-12T02:11:40;23.90;78.20
38237;DHT22;50101;49.438;11.098;2023-09-12T02:14:06;23.80;78.10
38237;DHT22;50101;49.438;11.098;2023-09-12T02:16:36;23.80;78.20
38237;DHT22;50101;49.438;11.098;2023-09-12T02:19:07;23.80;77.90
38237;DHT22;50101;49.438;11.098;2023-09-12T02:21:33;23.80;77.90
38237;DHT22;50101;49.438;11.098;2023-09-12T02:24:00;23.80;78.10
38237;DHT22;50101;49.438;11.098;2023-09-12T02:26:27;23.80;77.70
38237;DHT22;50101;49.438;11.098;2023-09-12T02:28:54;23.80;77.90
38237;DHT22;50101;49.438;11.098;2023-09-12T02:31:20;23.80;78.10
38237;DHT22;50101;49.438;11.098;2023-09-12T02:33:47;23.80;77.80
38237;DHT22;50101;49.438;11.098;2023-09-12T02:36:14;23.80;77.90
38237;DHT22;50101;49.438;11.098;2023-09-12T02:38:41;23.80;78.10
38237;DHT22;50101;49.438;11.098;2023-09-12T02:41:08;23.80;78.00
38237;DHT22;50101;49.438;11.098;2023-09-12T02:43:35;23.80;78.10
38237;DHT22;50101;49.438;11.098;2023-09-12T02:46:02;23.80;78.00
38237;DHT22;50101;49.438;11.098;2023-09-12T02:48:28;23.80;77.50
38237;DHT22;50101;49.438;11.098;2023-09-12T02:50:56;23.80;77.70
38237;DHT22;50101;49.438;11.098;2023-09-12T02:53:23;23.80;77.60
38237;DHT22;50101;49.438;11.098;2023-09-12T02:55:51;23.80;77.60
38237;DHT22;50101;49.438;11.098;2023-09-12T02:58:18;23.80;77.80
38237;DHT22;50101;49.438;11.098;2023-09-12T03:00:45;23.80;77.60
38237;DHT22;50101;49.438;11.098;2023-09-12T03:03:12;23.80;77.70
38237;DHT22;50101;49.438;11.098;2023-09-12T03:05:39;23.80;77.80
38237;DHT22;50101;49.438;11.098;2023-09-12T03:08:05;23.80;77.00
38237;DHT22;50101;49.438;11.098;2023-09-12T03:10:32;23.80;77.60
38237;DHT22;50101;49.438;11.098;2023-09-12T03:12:59;23.80;77.80
38237;DHT22;50101;49.438;11.098;2023-09-12T03:15:25;23.80;77.90
38237;DHT22;50101;49.438;11.098;2023-09-12T03:17:52;23.80;77.40
38237;DHT22;50101;49.438;11.098;2023-09-12T03:20:19;23.80;77.50
38237;DHT22;50101;49.438;11.098;2023-09-12T03:22:46;23.80;77.70
38237;DHT22;50101;49.438;11.098;2023-09-12T03:25:12;23.80;77.90
38237;DHT22;50101;49.438;11.098;2023-09-12T03:27:42;23.80;77.90
38237;DHT22;50101;49.438;11.098;2023-09-12T03:30:09;23.80;77.90
38237;DHT22;50101;49.438;11.098;2023-09-12T03:32:36;23.80;77.90
38237;DHT22;50101;49.438;11.098;2023-09-12T03:35:03;23.80;77.90
38237;DHT22;50101;49.438;11.098;2023-09-12T03:37:29;23.80;77.80
38237;DHT22;50101;49.438;11.098;2023-09-12T03:39:56;23.80;77.80
38237;DHT22;50101;49.438;11.098;2023-09-12T03:42:23;23.80;77.80
38237;DHT22;50101;49.438;11.098;2023-09-12T03:44:57;23.80;77.70
38237;DHT22;50101;49.438;11.098;2023-09-12T03:47:24;23.80;77.70
38237;DHT22;50101;49.438;11.098;2023-09-12T03:49:51;23.80;77.70
38237;DHT22;50101;49.438;11.098;2023-09-12T03:52:18;23.80;77.70
38237;DHT22;50101;49.438;11.098;2023-09-12T03:54:44;23.80;77.70
38237;DHT22;50101;49.438;11.098;2023-09-12T03:57:11;23.80;77.70
38237;DHT22;50101;49.438;11.098;2023-09-12T03:59:38;23.80;77.70
38237;DHT22;50101;49.438;11.098;2023-09-12T04:02:04;23.80;77.80
38237;DHT22;50101;49.438;11.098;2023-09-12T04:04:32;23.80;77.80
38237;DHT22;50101;49.438;11.098;2023-09-12T04:06:59;23.80;77.70
38237;DHT22;50101;49.438;11.098;2023-09-12T04:09:26;23.70;76.20
38237;DHT22;50101;49.438;11.098;2023-09-12T04:11:54;23.80;76.60
38237;DHT22;50101;49.438;11.098;2023-09-12T04:14:21;23.80;77.00
38237;DHT22;50101;49.438;11.098;2023-09-12T04:16:47;23.80;77.20
38237;DHT22;50101;49.438;11.098;2023-09-12T04:19:14;23.80;77.40
38237;DHT22;50101;49.438;11.098;2023-09-12T04:21:41;23.80;77.40
38237;DHT22;50101;49.438;11.098;2023-09-12T04:24:08;23.80;77.40
38237;DHT22;50101;49.438;11.098;2023-09-12T04:26:35;23.80;77.40
38237;DHT22;50101;49.438;11.098;2023-09-12T04:29:02;23.80;77.50
38237;DHT22;50101;49.438;11.098;2023-09-12T04:31:28;23.80;76.20
38237;DHT22;50101;49.438;11.098;2023-09-12T04:33:55;23.80;76.30
38237;DHT22;50101;49.438;11.098;2023-09-12T04:36:22;23.80;76.10
38237;DHT22;50101;49.438;11.098;2023-09-12T04:38:49;23.70;75.40
38237;DHT22;50101;49.438;11.098;2023-09-12T04:41:16;23.70;76.00
38237;DHT22;50101;49.438;11.098;2023-09-12T04:43:44;23.80;76.90
38237;DHT22;50101;49.438;11.098;2023-09-12T04:46:13;23.70;76.40
38237;DHT22;50101;49.438;11.098;2023-09-12T04:48:40;23.80;74.80
38237;DHT22;50101;49.438;11.098;2023-09-12T04:51:08;23.80;75.10
38237;DHT22;50101;49.438;11.098;2023-09-12T04:53:34;23.80;74.30
38237;DHT22;50101;49.438;11.098;2023-09-12T04:56:02;23.70;73.30
38237;DHT22;50101;49.438;11.098;2023-09-12T04:58:29;23.70;72.80
38237;DHT22;50101;49.438;11.098;2023-09-12T05:00:56;23.70;72.20
38237;DHT22;50101;49.438;11.098;2023-09-12T05:03:23;23.70;72.20
38237;DHT22;50101;49.438;11.098;2023-09-12T05:05:53;23.70;72.10
38237;DHT22;50101;49.438;11.098;2023-09-12T05:08:19;23.70;71.50
38237;DHT22;50101;49.438;11.098;2023-09-12T05:10:47;23.70;72.90
38237;DHT22;50101;49.438;11.098;2023-09-12T05:13:13;23.60;71.80
38237;DHT22;50101;49.438;11.098;2023-09-12T05:15:41;23.60;69.60
38237;DHT22;50101;49.438;11.098;2023-09-12T05:18:08;23.30;67.60
38237;DHT22;50101;49.438;11.098;2023-09-12T05:20:35;23.20;68.80
38237;DHT22;50101;49.438;11.098;2023-09-12T05:23:02;23.30;69.70
38237;DHT22;50101;49.438;11.098;2023-09-12T05:25:28;23.40;69.90
38237;DHT22;50101;49.438;11.098;2023-09-12T05:27:56;21.30;69.10
38237;DHT22;50101;49.438;11.098;2023-09-12T05:30:23;19.10;77.30
38237;DHT22;50101;49.438;11.098;2023-09-12T05:32:50;19.20;80.00
38237;DHT22;50101;49.438;11.098;2023-09-12T05:35:16;20.60;78.30
38237;DHT22;50101;49.438;11.098;2023-09-12T05:37:49;21.60;75.20
38237;DHT22;50101;49.438;11.098;2023-09-12T05:40:15;22.20;73.00
38237;DHT22;50101;49.438;11.098;2023-09-12T05:42:42;22.60;72.10
38237;DHT22;50101;49.438;11.098;2023-09-12T05:45:09;22.70;72.10
38237;DHT22;50101;49.438;11.098;2023-09-12T05:47:36;22.90;71.80
38237;DHT22;50101;49.438;11.098;2023-09-12T05:50:03;23.00;72.10
38237;DHT22;50101;49.438;11.098;2023-09-12T05:52:33;23.10;71.80
38237;DHT22;50101;49.438;11.098;2023-09-12T05:55:00;23.20;72.20
38237;DHT22;50101;49.438;11.098;2023-09-12T05:57:27;23.20;71.60
38237;DHT22;50101;49.438;11.098;2023-09-12T05:59:54;23.30;71.70
38237;DHT22;50101;49.438;11.098;2023-09-12T06:02:20;23.30;72.10
38237;DHT22;50101;49.438;11.098;2023-09-12T06:04:47;23.40;72.00
38237;DHT22;50101;49.438;11.098;2023-09-12T06:07:14;23.40;72.00
38237;DHT22;50101;49.438;11.098;2023-09-12T06:09:40;23.40;71.80
38237;DHT22;50101;49.438;11.098;2023-09-12T06:12:07;23.40;72.20
38237;DHT22;50101;49.438;11.098;2023-09-12T06:14:34;23.40;72.20
38237;DHT22;50101;49.438;11.098;2023-09-12T06:17:01;23.40;72.60
38237;DHT22;50101;49.438;11.098;2023-09-12T06:19:27;23.50;72.90
38237;DHT22;50101;49.438;11.098;2023-09-12T06:21:54;23.50;72.80
38237;DHT22;50101;49.438;11.098;2023-09-12T06:24:22;23.60;72.70
38237;DHT22;50101;49.438;11.098;2023-09-12T06:26:50;23.60;72.70
38237;DHT22;50101;49.438;11.098;2023-09-12T06:29:17;23.60;72.80
38237;DHT22;50101;49.438;11.098;2023-09-12T06:31:43;23.60;72.80
38237;DHT22;50101;49.438;11.098;2023-09-12T06:34:10;23.60;72.70
38237;DHT22;50101;49.438;11.098;2023-09-12T06:36:38;23.60;72.60
38237;DHT22;50101;49.438;11.098;2023-09-12T06:39:05;23.60;72.60
38237;DHT22;50101;49.438;11.098;2023-09-12T06:41:32;23.60;72.70
38237;DHT22;50101;49.438;11.098;2023-09-12T06:43:58;23.70;72.90
38237;DHT22;50101;49.438;11.098;2023-09-12T06:46:26;23.70;72.90
38237;DHT22;50101;49.438;11.098;2023-09-12T06:48:53;23.70;72.90
38237;DHT22;50101;49.438;11.098;2023-09-12T06:51:23;23.70;72.90
38237;DHT22;50101;49.438;11.098;2023-09-12T06:53:52;23.80;73.40
38237;DHT22;50101;49.438;11.098;2023-09-12T06:56:19;23.70;73.20
38237;DHT22;50101;49.438;11.098;2023-09-12T06:58:45;23.80;73.40
38237;DHT22;50101;49.438;11.098;2023-09-12T07:01:12;23.70;73.20
38237;DHT22;50101;49.438;11.098;2023-09-12T07:03:39;23.70;73.40
38237;DHT22;50101;49.438;11.098;2023-09-12T07:06:06;23.80;73.50
38237;DHT22;50101;49.438;11.098;2023-09-12T07:08:34;23.80;73.10
38237;DHT22;50101;49.438;11.098;2023-09-12T07:11:01;23.80;73.60
38237;DHT22;50101;49.438;11.098;2023-09-12T07:13:33;23.80;73.60
38237;DHT22;50101;49.438;11.098;2023-09-12T07:16:00;23.80;73.50
38237;DHT22;50101;49.438;11.098;2023-09-12T07:18:30;23.90;73.50
38237;DHT22;50101;49.438;11.098;2023-09-12T07:21:04;23.80;73.40
38237;DHT22;50101;49.438;11.098;2023-09-12T07:23:31;23.90;73.50
38237;DHT22;50101;49.438;11.098;2023-09-12T07:25:59;23.90;73.50
38237;DHT22;50101;49.438;11.098;2023-09-12T07:28:26;23.90;73.50
38237;DHT22;50101;49.438;11.098;2023-09-12T07:30:54;23.90;73.60
38237;DHT22;50101;49.438;11.098;2023-09-12T07:33:21;23.70;74.20
38237;DHT22;50101;49.438;11.098;2023-09-12T07:35:51;23.50;75.10
38237;DHT22;50101;49.438;11.098;2023-09-12T07:38:18;23.40;76.10
38237;DHT22;50101;49.438;11.098;2023-09-12T07:40:46;23.40;76.30
38237;DHT22;50101;49.438;11.098;2023-09-12T07:43:13;23.40;76.20
38237;DHT22;50101;49.438;11.098;2023-09-12T07:45:39;23.40;76.00
38237;DHT22;50101;49.438;11.098;2023-09-12T07:48:10;23.40;76.10
38237;DHT22;50101;49.438;11.098;2023-09-12T07:50:40;23.40;76.80
38237;DHT22;50101;49.438;11.098;2023-09-12T07:53:07;23.40;76.30
38237;DHT22;50101;49.438;11.098;2023-09-12T07:55:37;23.40;76.70
38237;DHT22;50101;49.438;11.098;2023-09-12T07:58:16;23.40;76.60
38237;DHT22;50101;49.438;11.098;2023-09-12T08:00:45;23.50;76.90
38237;DHT22;50101;49.438;11.098;2023-09-12T08:03:12;23.50;77.00
38237;DHT22;50101;49.438;11.098;2023-09-12T08:05:39;23.50;77.10
38237;DHT22;50101;49.438;11.098;2023-09-12T08:08:09;23.50;76.70
38237;DHT22;50101;49.438;11.098;2023-09-12T08:10:37;23.50;76.90
38237;DHT22;50101;49.438;11.098;2023-09-12T08:13:03;23.60;76.80
38237;DHT22;50101;49.438;11.098;2023-09-12T08:15:30;23.50;77.20
38237;DHT22;50101;49.438;11.098;2023-09-12T08:17:57;23.60;77.40
38237;DHT22;50101;49.438;11.098;2023-09-12T08:20:24;23.60;77.40
38237;DHT22;50101;49.438;11.098;2023-09-12T08:22:50;23.60;77.20
38237;DHT22;50101;49.438;11.098;2023-09-12T08:25:17;23.70;77.10
38237;DHT22;50101;49.438;11.098;2023-09-12T08:27:44;23.70;77.00
38237;DHT22;50101;49.438;11.098;2023-09-12T08:30:12;23.70;77.30
38237;DHT22;50101;49.438;11.098;2023-09-12T08:32:42;23.80;77.20
38237;DHT22;50101;49.438;11.098;2023-09-12T08:35:13;23.80;77.40
38237;DHT22;50101;49.438;11.098;2023-09-12T08:37:41;23.90;77.00
38237;DHT22;50101;49.438;11.098;2023-09-12T08:40:08;23.90;77.10
38237;DHT22;50101;49.438;11.098;2023-09-12T08:42:43;24.00;76.90
38237;DHT22;50101;49.438;11.098;2023-09-12T08:45:15;24.00;76.70
38237;DHT22;50101;49.438;11.098;2023-09-12T08:47:44;24.10;76.50
38237;DHT22;50101;49.438;11.098;2023-09-12T08:50:15;24.10;76.20
38237;DHT22;50101;49.438;11.098;2023-09-12T08:52:45;24.10;75.90
38237;DHT22;50101;49.438;11.098;2023-09-12T08:55:32;24.10;75.80
38237;DHT22;50101;49.438;11.098;2023-09-12T08:58:04;24.10;75.70
38237;DHT22;50101;49.438;11.098;2023-09-12T09:00:31;24.10;75.70
38237;DHT22;50101;49.438;11.098;2023-09-12T09:02:58;24.20;75.70
38237;DHT22;50101;49.438;11.098;2023-09-12T09:05:27;24.20;75.80
38237;DHT22;50101;49.438;11.098;2023-09-12T09:07:55;24.30;76.70
38237;DHT22;50101;49.438;11.098;2023-09-12T09:10:23;24.30;75.90
38237;DHT22;50101;49.438;11.098;2023-09-12T09:13:09;24.30;75.90
38237;DHT22;50101;49.438;11.098;2023-09-12T09:15:37;24.30;75.90
38237;DHT22;50101;49.438;11.098;2023-09-12T09:18:08;24.30;75.90
38237;DHT22;50101;49.438;11.098;2023-09-12T09:20:38;24.30;75.90
38237;DHT22;50101;49.438;11.098;2023-09-12T09:23:08;24.30;75.90
38237;DHT22;50101;49.438;11.098;2023-09-12T09:25:42;24.40;76.00
38237;DHT22;50101;49.438;11.098;2023-09-12T09:28:20;24.40;76.00
38237;DHT22;50101;49.438;11.098;2023-09-12T09:30:49;24.30;76.00
38237;DHT22;50101;49.438;11.098;2023-09-12T09:33:18;24.30;75.90
38237;DHT22;50101;49.438;11.098;2023-09-12T09:35:48;24.30;75.90
38237;DHT22;50101;49.438;11.098;2023-09-12T09:38:19;24.30;75.90
38237;DHT22;50101;49.438;11.098;2023-09-12T09:40:47;24.30;75.90
38237;DHT22;50101;49.438;11.098;2023-09-12T09:43:19;24.30;75.90
38237;DHT22;50101;49.438;11.098;2023-09-12T09:45:47;24.30;75.90
38237;DHT22;50101;49.438;11.098;2023-09-12T09:48:24;24.30;75.90
38237;DHT22;50101;49.438;11.098;2023-09-12T09:51:00;24.30;75.90
38237;DHT22;50101;49.438;11.098;2023-09-12T09:53:28;24.40;76.10
38237;DHT22;50101;49.438;11.098;2023-09-12T09:56:11;24.40;76.80
38237;DHT22;50101;49.438;11.098;2023-09-12T09:58:54;24.40;77.20
38237;DHT22;50101;49.438;11.098;2023-09-12T10:01:28;24.40;77.70
38237;DHT22;50101;49.438;11.098;2023-09-12T10:04:00;24.40;78.80
38237;DHT22;50101;49.438;11.098;2023-09-12T10:06:28;24.40;78.60
38237;DHT22;50101;49.438;11.098;2023-09-12T10:08:56;24.40;78.60
38237;DHT22;50101;49.438;11.098;2023-09-12T10:11:27;24.40;79.00
38237;DHT22;50101;49.438;11.098;2023-09-12T10:14:00;24.40;78.00
38237;DHT22;50101;49.438;11.098;2023-09-12T10:16:38;24.40;78.20
38237;DHT22;50101;49.438;11.098;2023-09-12T10:19:26;24.50;78.10
38237;DHT22;50101;49.438;11.098;2023-09-12T10:22:09;24.50;78.30
38237;DHT22;50101;49.438;11.098;2023-09-12T10:24:39;24.40;78.20
38237;DHT22;50101;49.438;11.098;2023-09-12T10:27:07;24.50;78.20
38237;DHT22;50101;49.438;11.098;2023-09-12T10:29:35;24.50;78.30
38237;DHT22;50101;49.438;11.098;2023-09-12T10:32:02;24.60;75.70
38237;DHT22;50101;49.438;11.098;2023-09-12T10:34:30;24.80;74.10
38237;DHT22;50101;49.438;11.098;2023-09-12T10:36:58;25.00;71.90
38237;DHT22;50101;49.438;11.098;2023-09-12T10:39:32;24.80;72.70
38237;DHT22;50101;49.438;11.098;2023-09-12T10:41:59;25.00;71.80
38237;DHT22;50101;49.438;11.098;2023-09-12T10:44:31;25.00;71.50
38237;DHT22;50101;49.438;11.098;2023-09-12T10:46:58;24.90;72.20
38237;DHT22;50101;49.438;11.098;2023-09-12T10:49:25;24.90;73.30
38237;DHT22;50101;49.438;11.098;2023-09-12T10:51:53;25.10;71.60
38237;DHT22;50101;49.438;11.098;2023-09-12T10:54:25;25.00;71.60
38237;DHT22;50101;49.438;11.098;2023-09-12T10:57:02;24.90;72.30
38237;DHT22;50101;49.438;11.098;2023-09-12T10:59:29;24.90;73.10
38237;DHT22;50101;49.438;11.098;2023-09-12T11:02:26;24.90;72.90
38237;DHT22;50101;49.438;11.098;2023-09-12T11:04:53;24.90;73.40
38237;DHT22;50101;49.438;11.098;2023-09-12T11:12:42;24.80;73.90
38237;DHT22;50101;49.438;11.098;2023-09-12T11:15:10;24.80;74.30
38237;DHT22;50101;49.438;11.098;2023-09-12T11:17:38;24.80;74.50
38237;DHT22;50101;49.438;11.098;2023-09-12T11:20:05;24.80;74.80
38237;DHT22;50101;49.438;11.098;2023-09-12T11:22:40;24.80;74.90
38237;DHT22;50101;49.438;11.098;2023-09-12T11:25:23;24.80;75.70
38237;DHT22;50101;49.438;11.098;2023-09-12T11:30:20;24.80;75.10
38237;DHT22;50101;49.438;11.098;2023-09-12T11:32:48;24.80;75.60
38237;DHT22;50101;49.438;11.098;2023-09-12T11:35:29;24.80;75.70
38237;DHT22;50101;49.438;11.098;2023-09-12T11:37:58;24.80;76.40
38237;DHT22;50101;49.438;11.098;2023-09-12T11:40:42;24.80;76.70
38237;DHT22;50101;49.438;11.098;2023-09-12T11:43:20;24.90;77.10
38237;DHT22;50101;49.438;11.098;2023-09-12T11:45:49;25.10;75.00
38237;DHT22;50101;49.438;11.098;2023-09-12T11:48:16;25.00;74.80
38237;DHT22;50101;49.438;11.098;2023-09-12T11:50:53;24.90;75.00
38237;DHT22;50101;49.438;11.098;2023-09-12T11:53:21;24.90;75.30
38237;DHT22;50101;49.438;11.098;2023-09-12T11:55:54;24.90;75.50
38237;DHT22;50101;49.438;11.098;2023-09-12T11:58:24;24.80;75.50
38237;DHT22;50101;49.438;11.098;2023-09-12T12:00:54;24.80;75.60
38237;DHT22;50101;49.438;11.098;2023-09-12T12:03:23;24.80;75.50
38237;DHT22;50101;49.438;11.098;2023-09-12T12:05:50;24.80;75.50
38237;DHT22;50101;49.438;11.098;2023-09-12T12:08:18;24.80;75.30
38237;DHT22;50101;49.438;11.098;2023-09-12T12:10:52;24.80;75.70
38237;DHT22;50101;49.438;11.098;2023-09-12T12:13:20;24.80;76.20
38237;DHT22;50101;49.438;11.098;2023-09-12T12:15:47;24.90;76.20
38237;DHT22;50101;49.438;11.098;2023-09-12T12:18:15;25.20;73.80
38237;DHT22;50101;49.438;11.098;2023-09-12T12:20:42;25.20;74.90
38237;DHT22;50101;49.438;11.098;2023-09-12T12:23:09;25.20;75.10
38237;DHT22;50101;49.438;11.098;2023-09-12T12:25:36;25.10;74.00
38237;DHT22;50101;49.438;11.098;2023-09-12T12:28:03;25.10;74.30
38237;DHT22;50101;49.438;11.098;2023-09-12T12:30:32;25.30;73.10
38237;DHT22;50101;49.438;11.098;2023-09-12T12:33:01;25.90;69.80
38237;DHT22;50101;49.438;11.098;2023-09-12T12:35:49;25.70;70.40
38237;DHT22;50101;49.438;11.098;2023-09-12T12:38:21;25.90;70.10
38237;DHT22;50101;49.438;11.098;2023-09-12T12:40:47;25.60;71.00
38237;DHT22;50101;49.438;11.098;2023-09-12T12:43:17;25.50;71.30
38237;DHT22;50101;49.438;11.098;2023-09-12T12:45:55;25.40;72.10
38237;DHT22;50101;49.438;11.098;2023-09-12T12:48:32;25.30;73.20
38237;DHT22;50101;49.438;11.098;2023-09-12T12:50:59;25.30;73.70
38237;DHT22;50101;49.438;11.098;2023-09-12T12:53:39;25.30;74.40
38237;DHT22;50101;49.438;11.098;2023-09-12T12:56:12;25.20;74.70
38237;DHT22;50101;49.438;11.098;2023-09-12T12:58:46;25.10;74.60
38237;DHT22;50101;49.438;11.098;2023-09-12T13:01:13;25.10;74.80
38237;DHT22;50101;49.438;11.098;2023-09-12T13:03:40;25.10;74.80
38237;DHT22;50101;49.438;11.098;2023-09-12T13:06:09;25.10;75.00
38237;DHT22;50101;49.438;11.098;2023-09-12T13:08:44;25.10;75.10
38237;DHT22;50101;49.438;11.098;2023-09-12T13:11:12;25.00;75.10
38237;DHT22;50101;49.438;11.098;2023-09-12T13:13:44;25.00;75.10
38237;DHT22;50101;49.438;11.098;2023-09-12T13:16:13;25.00;75.10
38237;DHT22;50101;49.438;11.098;2023-09-12T13:18:41;25.00;75.20
38237;DHT22;50101;49.438;11.098;2023-09-12T13:21:08;25.00;75.10
38237;DHT22;50101;49.438;11.098;2023-09-12T13:23:38;25.00;75.10
38237;DHT22;50101;49.438;11.098;2023-09-12T13:26:07;25.00;75.20
38237;DHT22;50101;49.438;11.098;2023-09-12T13:28:34;25.00;75.30
38237;DHT22;50101;49.438;11.098;2023-09-12T13:31:01;25.00;75.30
38237;DHT22;50101;49.438;11.098;2023-09-12T13:33:28;25.00;75.30
38237;DHT22;50101;49.438;11.098;2023-09-12T13:35:55;25.00;75.40
38237;DHT22;50101;49.438;11.098;2023-09-12T13:38:21;25.00;75.40
38237;DHT22;50101;49.438;11.098;2023-09-12T13:40:49;25.00;75.40
38237;DHT22;50101;49.438;11.098;2023-09-12T13:43:16;25.00;75.30
38237;DHT22;50101;49.438;11.098;2023-09-12T13:45:43;25.00;75.30
38237;DHT22;50101;49.438;11.098;2023-09-12T13:48:10;25.00;75.40
38237;DHT22;50101;49.438;11.098;2023-09-12T13:50:38;25.00;75.40
38237;DHT22;50101;49.438;11.098;2023-09-12T13:53:05;25.00;75.40
38237;DHT22;50101;49.438;11.098;2023-09-12T13:55:34;25.00;75.40
38237;DHT22;50101;49.438;11.098;2023-09-12T13:58:13;25.00;75.50
38237;DHT22;50101;49.438;11.098;2023-09-12T14:00:39;25.00;75.40
38237;DHT22;50101;49.438;11.098;2023-09-12T14:03:07;25.00;75.50
38237;DHT22;50101;49.438;11.098;2023-09-12T14:05:36;25.00;75.50
38237;DHT22;50101;49.438;11.098;2023-09-12T14:08:04;25.00;75.50
38237;DHT22;50101;49.438;11.098;2023-09-12T14:10:31;25.00;75.70
38237;DHT22;50101;49.438;11.098;2023-09-12T14:13:03;25.00;75.70
38237;DHT22;50101;49.438;11.098;2023-09-12T14:15:46;25.00;75.70
38237;DHT22;50101;49.438;11.098;2023-09-12T14:18:14;25.00;75.70
38237;DHT22;50101;49.438;11.098;2023-09-12T14:20:42;25.00;75.70
38237;DHT22;50101;49.438;11.098;2023-09-12T14:23:11;25.00;76.10
38237;DHT22;50101;49.438;11.098;2023-09-12T14:25:38;25.00;76.60
38237;DHT22;50101;49.438;11.098;2023-09-12T14:28:05;25.00;76.60
38237;DHT22;50101;49.438;11.098;2023-09-12T14:30:34;25.10;77.30
38237;DHT22;50101;49.438;11.098;2023-09-12T14:33:03;25.10;77.60
38237;DHT22;50101;49.438;11.098;2023-09-12T14:35:30;25.00;76.80
38237;DHT22;50101;49.438;11.098;2023-09-12T14:37:56;25.20;76.20
38237;DHT22;50101;49.438;11.098;2023-09-12T14:40:25;25.20;74.20
38237;DHT22;50101;49.438;11.098;2023-09-12T14:42:53;25.20;74.00
38237;DHT22;50101;49.438;11.098;2023-09-12T14:45:20;25.20;73.60
38237;DHT22;50101;49.438;11.098;2023-09-12T14:47:47;25.40;70.90
38237;DHT22;50101;49.438;11.098;2023-09-12T14:50:14;25.30;71.50
38237;DHT22;50101;49.438;11.098;2023-09-12T14:52:41;25.20;72.00
38237;DHT22;50101;49.438;11.098;2023-09-12T14:55:09;25.20;72.00
38237;DHT22;50101;49.438;11.098;2023-09-12T14:57:37;25.20;71.70
38237;DHT22;50101;49.438;11.098;2023-09-12T15:00:04;25.30;70.40
38237;DHT22;50101;49.438;11.098;2023-09-12T15:02:31;25.20;71.10
38237;DHT22;50101;49.438;11.098;2023-09-12T15:05:03;25.10;71.30
38237;DHT22;50101;49.438;11.098;2023-09-12T15:07:30;25.10;71.60
38237;DHT22;50101;49.438;11.098;2023-09-12T15:09:57;25.20;70.20
38237;DHT22;50101;49.438;11.098;2023-09-12T15:12:24;25.20;70.40
38237;DHT22;50101;49.438;11.098;2023-09-12T15:14:51;25.20;70.90
38237;DHT22;50101;49.438;11.098;2023-09-12T15:17:18;25.20;71.70
38237;DHT22;50101;49.438;11.098;2023-09-12T15:19:46;25.20;70.70
38237;DHT22;50101;49.438;11.098;2023-09-12T15:22:12;25.20;70.80
38237;DHT22;50101;49.438;11.098;2023-09-12T15:24:42;25.20;70.70
38237;DHT22;50101;49.438;11.098;2023-09-12T15:27:09;25.10;70.90
38237;DHT22;50101;49.438;11.098;2023-09-12T15:29:36;25.10;71.00
38237;DHT22;50101;49.438;11.098;2023-09-12T15:32:03;25.10;71.20
38237;DHT22;50101;49.438;11.098;2023-09-12T15:34:30;25.10;71.70